Portada
METAR-TAF:

METAR-TAF

Aeroports :

Antsiranana, Madagascar

latitud: 12-21S, longitud: 049-18E, altitud: 114 m

Observació

L'informe es va fer fa 11 hores i 32 minuts, a les 15:00 UTC
Vent 6 kt del Oest
Temperatura 28°C
Humitat 79%
Pressió 1009 hPa
Visibilitat 10 km o més
Núvols disperses a una alçada de 2000 ft

METAR: FMNA 051500Z 28006KT 9999 SCT020 28/24 Q1009

Hora: 05:32 (02:32 UTC)

Pronòstic

L'informe es va fer fa 3 hores i 32 minuts, a les 23:00 UTC
Pronòstic vàlid del 06 a les 00 UTC al 06 a les 24 UTC
Vent 8 kt del Oest
Visibilitat 10 km o més
Escasses núvols a una alçada de 2000 ft
Núvols disperses a una alçada de 4000 ft
Probabilitat 30% :
Temporalment
l' 06 a les 00 UTC al 06 a les 12 UTC
Visibilitat: 4500 m
xàfecs de pluja

TAF: FMNA 052300Z 0600/0624 28008KT 9999 FEW020 SCT040 PROB30 TEMPO 0600/0612 4500 SHRA

Observacions i pronòstics meteorològics de més de 4000 aeroports (METAR i TAF).

Les estacions disponibles són els punts grocs i vermells al mapa.

Posi el ratolí al punt desitjat per veure el nom de l'estació.

Feu clic per veure les observacions i els pronòstics meteorològics.

Per canviar el mapa: feu clic els botons verds amb una creu de color negre per apropar; al botó verd amb un guió per allunyar la imatge; o en les fletxes verdes per a mapes adjacents.


METAR-TAF: